sensor_id;sensor_type;location;lat;lon;timestamp;P1;P2;P0
76043;PMS7003;64740;34.694;33.088;2023-02-21T00:01:14;6.7;6;4.8
76043;PMS7003;64740;34.694;33.088;2023-02-21T00:06:48;6.1;5.8;4.6
76043;PMS7003;64740;34.694;33.088;2023-02-21T00:11:39;7;6.3;4.8
76043;PMS7003;64740;34.694;33.088;2023-02-21T00:16:52;7;6;4.8
76043;PMS7003;64740;34.694;33.088;2023-02-21T00:21:48;5.9;5.6;4.3
76043;PMS7003;64740;34.694;33.088;2023-02-21T00:26:26;6.5;6;5
76043;PMS7003;64740;34.694;33.088;2023-02-21T00:31:58;6.8;6.2;4.7
76043;PMS7003;64740;34.694;33.088;2023-02-21T00:36:50;6.5;5.6;4.5
76043;PMS7003;64740;34.694;33.088;2023-02-21T00:42:00;6.1;5.5;4.3
76043;PMS7003;64740;34.694;33.088;2023-02-21T00:46:46;6.5;5.7;4.8
76043;PMS7003;64740;34.694;33.088;2023-02-21T00:51:26;6.2;5.5;4.2
76043;PMS7003;64740;34.694;33.088;2023-02-21T00:57:00;5.9;5.2;4.1
76043;PMS7003;64740;34.694;33.088;2023-02-21T01:01:36;6.4;5.2;4.3
76043;PMS7003;64740;34.694;33.088;2023-02-21T01:06:58;5.8;5.4;4.3
76043;PMS7003;64740;34.694;33.088;2023-02-21T01:11:46;5.7;5;3.9
76043;PMS7003;64740;34.694;33.088;2023-02-21T01:16:26;6.2;5.3;4.3
76043;PMS7003;64740;34.694;33.088;2023-02-21T01:21:58;6.2;5.7;4.7
76043;PMS7003;64740;34.694;33.088;2023-02-21T01:26:26;6.1;5.3;4.2
76043;PMS7003;64740;34.694;33.088;2023-02-21T01:31:58;6.2;5.4;4.4
76043;PMS7003;64740;34.694;33.088;2023-02-21T01:36:44;5.3;4.5;3.4
76043;PMS7003;64740;34.694;33.088;2023-02-21T01:41:14;6.5;5.4;4
76043;PMS7003;64740;34.694;33.088;2023-02-21T01:47:02;5.1;4.6;3.7
76043;PMS7003;64740;34.694;33.088;2023-02-21T01:51:15;5.9;5.2;4.2
76043;PMS7003;64740;34.694;33.088;2023-02-21T01:57:01;5.5;4.9;4
76043;PMS7003;64740;34.694;33.088;2023-02-21T02:01:45;5.7;4.9;3.7
76043;PMS7003;64740;34.694;33.088;2023-02-21T02:06:40;5;4.7;3.7
76043;PMS7003;64740;34.694;33.088;2023-02-21T02:12:06;5.6;4.8;4
76043;PMS7003;64740;34.694;33.088;2023-02-21T02:16:16;5.3;4.9;3.6
76043;PMS7003;64740;34.694;33.088;2023-02-21T02:21:46;5.6;4.6;3.8
76043;PMS7003;64740;34.694;33.088;2023-02-21T02:26:52;5.1;4.3;3.2
76043;PMS7003;64740;34.694;33.088;2023-02-21T02:31:51;5;5;4.1
76043;PMS7003;64740;34.694;33.088;2023-02-21T02:36:47;4.7;4.6;3.8
76043;PMS7003;64740;34.694;33.088;2023-02-21T02:41:26;5.2;4.8;3.9
76043;PMS7003;64740;34.694;33.088;2023-02-21T02:46:58;5;4.7;3.9
76043;PMS7003;64740;34.694;33.088;2023-02-21T02:51:46;5.2;4.7;3.9
76043;PMS7003;64740;34.694;33.088;2023-02-21T02:56:14;5.3;4.5;3.7
76043;PMS7003;64740;34.694;33.088;2023-02-21T03:02:01;5.5;4.9;4
76043;PMS7003;64740;34.694;33.088;2023-02-21T03:06:40;5.4;5.1;4.1
76043;PMS7003;64740;34.694;33.088;2023-02-21T03:11:59;5.6;4.8;4
76043;PMS7003;64740;34.694;33.088;2023-02-21T03:16:44;4.6;4.4;3.5
76043;PMS7003;64740;34.694;33.088;2023-02-21T03:21:15;6.1;5.4;4
76043;PMS7003;64740;34.694;33.088;2023-02-21T03:26:45;5.8;5.3;4.2
76043;PMS7003;64740;34.694;33.088;2023-02-21T03:31:39;5.9;5.4;4.2
76043;PMS7003;64740;34.694;33.088;2023-02-21T03:37:00;5.2;4.6;3.8
76043;PMS7003;64740;34.694;33.088;2023-02-21T03:42:02;5.6;4.8;4
76043;PMS7003;64740;34.694;33.088;2023-02-21T03:46:14;6;5.1;4
76043;PMS7003;64740;34.694;33.088;2023-02-21T03:51:46;5.7;5.1;4.2
76043;PMS7003;64740;34.694;33.088;2023-02-21T03:56:26;6.3;5.4;4.2
76043;PMS7003;64740;34.694;33.088;2023-02-21T04:02:00;5.9;5.5;4.3
76043;PMS7003;64740;34.694;33.088;2023-02-21T04:06:46;8.2;6.7;5.2
76043;PMS7003;64740;34.694;33.088;2023-02-21T04:11:41;6.2;5.5;4.4
76043;PMS7003;64740;34.694;33.088;2023-02-21T04:16:44;7;5.9;4.7
76043;PMS7003;64740;34.694;33.088;2023-02-21T04:21:24;7.3;6.2;4.9
76043;PMS7003;64740;34.694;33.088;2023-02-21T04:27:00;6.6;6.3;4.9
76043;PMS7003;64740;34.694;33.088;2023-02-21T04:31:46;7.2;6.6;5.1
76043;PMS7003;64740;34.694;33.088;2023-02-21T04:36:14;6.3;5.9;4.6
76043;PMS7003;64740;34.694;33.088;2023-02-21T04:41:44;7.5;6.7;5.2
76043;PMS7003;64740;34.694;33.088;2023-02-21T04:46:15;7.9;6.9;5.3
76043;PMS7003;64740;34.694;33.088;2023-02-21T04:52:00;7.8;6.9;5.4
76043;PMS7003;64740;34.694;33.088;2023-02-21T04:56:46;7.5;6.5;5.2
76043;PMS7003;64740;34.694;33.088;2023-02-21T05:01:14;8.7;7.1;5.3
76043;PMS7003;64740;34.694;33.088;2023-02-21T05:06:44;8.1;7.6;6
76043;PMS7003;64740;34.694;33.088;2023-02-21T05:11:38;7.4;6.9;5.3
76043;PMS7003;64740;34.694;33.088;2023-02-21T05:16:58;8;7;5.4
76043;PMS7003;64740;34.694;33.088;2023-02-21T05:21:46;8;7.6;5.7
76043;PMS7003;64740;34.694;33.088;2023-02-21T05:26:23;8.7;7.9;6.1
76043;PMS7003;64740;34.694;33.088;2023-02-21T05:31:42;8.2;7;5.4
76043;PMS7003;64740;34.694;33.088;2023-02-21T05:36:36;8.4;7.4;5.8
76043;PMS7003;64740;34.694;33.088;2023-02-21T05:41:58;8.3;7.3;5.8
76043;PMS7003;64740;34.694;33.088;2023-02-21T05:46:44;8.2;7.2;5.4
76043;PMS7003;64740;34.694;33.088;2023-02-21T05:51:44;7.8;6.9;5.1
76043;PMS7003;64740;34.694;33.088;2023-02-21T05:56:36;7.7;7.3;5.5
76043;PMS7003;64740;34.694;33.088;2023-02-21T06:01:36;8.5;7.4;5.7
76043;PMS7003;64740;34.694;33.088;2023-02-21T06:07:00;8.7;6.8;5.4
76043;PMS7003;64740;34.694;33.088;2023-02-21T06:11:14;8.9;7.8;5.9
76043;PMS7003;64740;34.694;33.088;2023-02-21T06:16:14;8.5;6.9;5
76043;PMS7003;64740;34.694;33.088;2023-02-21T06:21:44;8.5;7.3;5.6
76043;PMS7003;64740;34.694;33.088;2023-02-21T06:26:15;8.6;7.4;5.2
76043;PMS7003;64740;34.694;33.088;2023-02-21T06:31:55;8;7.4;5.6
76043;PMS7003;64740;34.694;33.088;2023-02-21T06:36:15;8.6;6.9;5.6
76043;PMS7003;64740;34.694;33.088;2023-02-21T06:41:25;8.1;7.5;5.7
76043;PMS7003;64740;34.694;33.088;2023-02-21T06:46:58;8.7;7.1;5.9
76043;PMS7003;64740;34.694;33.088;2023-02-21T06:51:24;7.1;6.6;5
76043;PMS7003;64740;34.694;33.088;2023-02-21T06:56:44;8.1;6.8;5.2
76043;PMS7003;64740;34.694;33.088;2023-02-21T07:01:14;7.8;7;5.4
76043;PMS7003;64740;34.694;33.088;2023-02-21T07:06:50;7.8;6.8;5.2
76043;PMS7003;64740;34.694;33.088;2023-02-21T07:11:58;7.7;6.4;4.8
76043;PMS7003;64740;34.694;33.088;2023-02-21T07:16:24;6.3;5.4;4.2
76043;PMS7003;64740;34.694;33.088;2023-02-21T07:21:44;5.8;5;4
76043;PMS7003;64740;34.694;33.088;2023-02-21T07:26:38;5.9;5.3;4.2
76043;PMS7003;64740;34.694;33.088;2023-02-21T07:31:48;4.8;4.1;3
76043;PMS7003;64740;34.694;33.088;2023-02-21T07:36:46;5.1;4.5;3.4
76043;PMS7003;64740;34.694;33.088;2023-02-21T07:41:24;6;5;3.8
76043;PMS7003;64740;34.694;33.088;2023-02-21T07:46:36;5.1;4.5;3.6
76043;PMS7003;64740;34.694;33.088;2023-02-21T07:51:26;5.5;4.6;3.6
76043;PMS7003;64740;34.694;33.088;2023-02-21T07:56:14;4.6;4.3;3.3
76043;PMS7003;64740;34.694;33.088;2023-02-21T08:01:58;5.3;4.8;3.8
76043;PMS7003;64740;34.694;33.088;2023-02-21T08:06:46;5.9;4.7;3.7
76043;PMS7003;64740;34.694;33.088;2023-02-21T08:11:44;9.2;9.1;7
76043;PMS7003;64740;34.694;33.088;2023-02-21T08:16:24;11.5;10.2;7.8
76043;PMS7003;64740;34.694;33.088;2023-02-21T08:21:14;5.7;4.8;3.9
76043;PMS7003;64740;34.694;33.088;2023-02-21T08:26:48;5.7;4.6;3.7
76043;PMS7003;64740;34.694;33.088;2023-02-21T08:31:24;5.2;4.7;3.7
76043;PMS7003;64740;34.694;33.088;2023-02-21T08:36:48;5.9;5.2;4.3
76043;PMS7003;64740;34.694;33.088;2023-02-21T08:41:14;5.5;5.3;4.1
76043;PMS7003;64740;34.694;33.088;2023-02-21T08:46:14;5.6;4.8;3.5
76043;PMS7003;64740;34.694;33.088;2023-02-21T08:52:02;4.7;4.1;3.1
76043;PMS7003;64740;34.694;33.088;2023-02-21T08:56:38;4.3;4.1;3.2
76043;PMS7003;64740;34.694;33.088;2023-02-21T09:02:02;4.6;4.1;3.4
76043;PMS7003;64740;34.694;33.088;2023-02-21T09:06:46;4.9;4.5;3.4
76043;PMS7003;64740;34.694;33.088;2023-02-21T09:11:14;5.2;4.4;3.5
76043;PMS7003;64740;34.694;33.088;2023-02-21T09:17:00;5;4.6;3.5
76043;PMS7003;64740;34.694;33.088;2023-02-21T09:21:36;5;4.2;3.3
76043;PMS7003;64740;34.694;33.088;2023-02-21T09:26:50;5.1;4.2;3.2
76043;PMS7003;64740;34.694;33.088;2023-02-21T09:31:40;5.2;4.5;3.3
76043;PMS7003;64740;34.694;33.088;2023-02-21T09:36:26;5.1;3.9;3.2
76043;PMS7003;64740;34.694;33.088;2023-02-21T09:42:04;4.5;4.3;3.6
76043;PMS7003;64740;34.694;33.088;2023-02-21T09:46:38;5.5;4.7;3.7
76043;PMS7003;64740;34.694;33.088;2023-02-21T09:51:47;5.5;4.6;3.7
76043;PMS7003;64740;34.694;33.088;2023-02-21T09:56:38;5.4;4.7;3.6
76043;PMS7003;64740;34.694;33.088;2023-02-21T10:01:42;5.6;5;4.1
76043;PMS7003;64740;34.694;33.088;2023-02-21T10:07:04;5.5;4.9;4
76043;PMS7003;64740;34.694;33.088;2023-02-21T10:11:27;5.4;4.3;3.4
76043;PMS7003;64740;34.694;33.088;2023-02-21T10:16:50;5.6;4.7;3.8
76043;PMS7003;64740;34.694;33.088;2023-02-21T10:21:39;5;4.5;3.6
76043;PMS7003;64740;34.694;33.088;2023-02-21T10:26:15;4.8;4.5;3.5
76043;PMS7003;64740;34.694;33.088;2023-02-21T10:31:46;4.8;4.3;3.4
76043;PMS7003;64740;34.694;33.088;2023-02-21T10:36:46;4.9;4.1;3.5
76043;PMS7003;64740;34.694;33.088;2023-02-21T10:41:48;4.5;4.3;3.5
76043;PMS7003;64740;34.694;33.088;2023-02-21T10:46:38;4.4;4.1;3.5
76043;PMS7003;64740;34.694;33.088;2023-02-21T10:51:15;4.8;4.4;3.5
76043;PMS7003;64740;34.694;33.088;2023-02-21T10:56:26;5.1;4.6;3.6
76043;PMS7003;64740;34.694;33.088;2023-02-21T11:01:22;4;3.6;2.7
76043;PMS7003;64740;34.694;33.088;2023-02-21T11:07:02;4.5;4.3;3.5
76043;PMS7003;64740;34.694;33.088;2023-02-21T11:11:58;4.6;4.1;3.3
76043;PMS7003;64740;34.694;33.088;2023-02-21T11:16:15;5.5;5;4
76043;PMS7003;64740;34.694;33.088;2023-02-21T11:21:24;5.7;4.4;3.3
76043;PMS7003;64740;34.694;33.088;2023-02-21T11:26:24;4.7;4.4;3.5
76043;PMS7003;64740;34.694;33.088;2023-02-21T11:32:07;5.5;4.6;3.5
76043;PMS7003;64740;34.694;33.088;2023-02-21T11:36:52;5.4;4.3;3.6
76043;PMS7003;64740;34.694;33.088;2023-02-21T11:41:15;5.3;4.7;3.5
76043;PMS7003;64740;34.694;33.088;2023-02-21T11:46:38;5;4.6;3.5
76043;PMS7003;64740;34.694;33.088;2023-02-21T11:51:30;4.7;4.5;3.5
76043;PMS7003;64740;34.694;33.088;2023-02-21T11:57:09;4.7;4.3;3.5
76043;PMS7003;64740;34.694;33.088;2023-02-21T12:01:54;5.3;4.3;3.7
76043;PMS7003;64740;34.694;33.088;2023-02-21T12:06:35;4.8;4.5;3.5
76043;PMS7003;64740;34.694;33.088;2023-02-21T12:11:28;5.4;4.9;3.9
76043;PMS7003;64740;34.694;33.088;2023-02-21T12:16:26;5.4;4.5;3.7
76043;PMS7003;64740;34.694;33.088;2023-02-21T12:22:07;5.2;4.7;3.6
76043;PMS7003;64740;34.694;33.088;2023-02-21T12:26:56;5.3;4.9;4
76043;PMS7003;64740;34.694;33.088;2023-02-21T12:31:18;5.1;4.5;3.6
76043;PMS7003;64740;34.694;33.088;2023-02-21T12:36:53;4.9;4.4;3.4
76043;PMS7003;64740;34.694;33.088;2023-02-21T12:41:40;4.3;4;3.2
76043;PMS7003;64740;34.694;33.088;2023-02-21T12:47:08;4.9;4.5;3.7
76043;PMS7003;64740;34.694;33.088;2023-02-21T12:51:43;4.8;4.3;3.4
76043;PMS7003;64740;34.694;33.088;2023-02-21T12:56:37;4.6;4.3;3.4
76043;PMS7003;64740;34.694;33.088;2023-02-21T13:01:14;5.1;4.7;4
76043;PMS7003;64740;34.694;33.088;2023-02-21T13:06:15;5.5;4.2;3.5
76043;PMS7003;64740;34.694;33.088;2023-02-21T13:12:06;4.2;4.2;3.3
76043;PMS7003;64740;34.694;33.088;2023-02-21T13:16:52;5.9;5.1;4
76043;PMS7003;64740;34.694;33.088;2023-02-21T13:21:28;5.2;4.9;3.8
76043;PMS7003;64740;34.694;33.088;2023-02-21T13:26:38;5.6;5;4.2
76043;PMS7003;64740;34.694;33.088;2023-02-21T13:31:17;6;5.3;4.2
76043;PMS7003;64740;34.694;33.088;2023-02-21T13:37:05;4.9;4.7;3.7
76043;PMS7003;64740;34.694;33.088;2023-02-21T13:41:53;5.2;4.9;3.8
76043;PMS7003;64740;34.694;33.088;2023-02-21T13:47:11;4.7;4.4;3.4
76043;PMS7003;64740;34.694;33.088;2023-02-21T13:51:50;4.5;4.4;3.5
76043;PMS7003;64740;34.694;33.088;2023-02-21T13:56:15;4.7;4.1;3.2
76043;PMS7003;64740;34.694;33.088;2023-02-21T14:02:15;4.2;3.7;2.8
76043;PMS7003;64740;34.694;33.088;2023-02-21T14:06:53;5.6;4.8;3.7
76043;PMS7003;64740;34.694;33.088;2023-02-21T14:11:25;4.8;4.4;3.5
76043;PMS7003;64740;34.694;33.088;2023-02-21T14:16:23;4.8;4.4;3.6
76043;PMS7003;64740;34.694;33.088;2023-02-21T14:21:26;5.4;4.8;3.9
76043;PMS7003;64740;34.694;33.088;2023-02-21T14:27:29;5.9;5.2;4.2
76043;PMS7003;64740;34.694;33.088;2023-02-21T14:31:51;5.4;5;3.8
76043;PMS7003;64740;34.694;33.088;2023-02-21T14:36:14;4.9;4.5;3.6
76043;PMS7003;64740;34.694;33.088;2023-02-21T14:41:35;4.7;4.4;3.6
76043;PMS7003;64740;34.694;33.088;2023-02-21T14:46:22;4.7;4.4;3.6
76043;PMS7003;64740;34.694;33.088;2023-02-21T14:52:17;4.9;4.5;3.7
76043;PMS7003;64740;34.694;33.088;2023-02-21T14:56:57;6;5.4;4.4
76043;PMS7003;64740;34.694;33.088;2023-02-21T15:01:38;5.6;5.4;4.3
76043;PMS7003;64740;34.694;33.088;2023-02-21T15:06:24;5.7;5.3;4.4
76043;PMS7003;64740;34.694;33.088;2023-02-21T15:11:25;5.8;5.2;4.3
76043;PMS7003;64740;34.694;33.088;2023-02-21T15:17:09;5.8;5.7;4.6
76043;PMS7003;64740;34.694;33.088;2023-02-21T15:22:22;5.8;5.2;4.4
76043;PMS7003;64740;34.694;33.088;2023-02-21T15:27:10;6.1;5.5;4.5
76043;PMS7003;64740;34.694;33.088;2023-02-21T15:31:14;6.7;6;4.9
76043;PMS7003;64740;34.694;33.088;2023-02-21T15:36:15;7.4;6.3;4.9
76043;PMS7003;64740;34.694;33.088;2023-02-21T15:42:02;7.7;7.1;5.6
76043;PMS7003;64740;34.694;33.088;2023-02-21T15:46:15;7.6;6.8;5.5
76043;PMS7003;64740;34.694;33.088;2023-02-21T15:51:42;7.8;7.3;5.7
76043;PMS7003;64740;34.694;33.088;2023-02-21T15:56:23;7.6;6.9;5.4
76043;PMS7003;64740;34.694;33.088;2023-02-21T16:01:24;8.3;8;6.1
76043;PMS7003;64740;34.694;33.088;2023-02-21T16:06:54;8.5;7.7;5.8
76043;PMS7003;64740;34.694;33.088;2023-02-21T16:11:36;9.6;8.2;6.4
76043;PMS7003;64740;34.694;33.088;2023-02-21T16:17:07;9.7;8.6;6.7
76043;PMS7003;64740;34.694;33.088;2023-02-21T16:21:34;11.3;10;7.2
76043;PMS7003;64740;34.694;33.088;2023-02-21T16:26:19;11.4;10.4;7.5
76043;PMS7003;64740;34.694;33.088;2023-02-21T16:31:58;14.8;13.6;10.1
76043;PMS7003;64740;34.694;33.088;2023-02-21T16:36:59;13.9;11.7;8.7
76043;PMS7003;64740;34.694;33.088;2023-02-21T16:42:02;13.3;11.6;9
76043;PMS7003;64740;34.694;33.088;2023-02-21T16:46:46;14.8;13.6;9.7
76043;PMS7003;64740;34.694;33.088;2023-02-21T16:51:14;14;12.9;10
76043;PMS7003;64740;34.694;33.088;2023-02-21T16:57:00;14.6;13.1;9.3
76043;PMS7003;64740;34.694;33.088;2023-02-21T17:01:38;14.4;13;9.7
76043;PMS7003;64740;34.694;33.088;2023-02-21T17:06:53;15.2;14.1;10.2
76043;PMS7003;64740;34.694;33.088;2023-02-21T17:11:22;15.1;13;10.3
76043;PMS7003;64740;34.694;33.088;2023-02-21T17:16:22;17.2;14.8;10.8
76043;PMS7003;64740;34.694;33.088;2023-02-21T17:22:02;15.7;14.6;11
76043;PMS7003;64740;34.694;33.088;2023-02-21T17:26:50;15.8;14.6;10.9
76043;PMS7003;64740;34.694;33.088;2023-02-21T17:31:54;15.1;13.9;10.3
76043;PMS7003;64740;34.694;33.088;2023-02-21T17:37:02;18.5;17.2;12.7
76043;PMS7003;64740;34.694;33.088;2023-02-21T17:41:34;19.9;17.8;12.9
76043;PMS7003;64740;34.694;33.088;2023-02-21T17:47:02;21.1;18.3;13.5
76043;PMS7003;64740;34.694;33.088;2023-02-21T17:51:52;18.5;17.7;13
76043;PMS7003;64740;34.694;33.088;2023-02-21T17:57:02;17.9;16;12.2
76043;PMS7003;64740;34.694;33.088;2023-02-21T18:01:30;15.3;14.6;11.1
76043;PMS7003;64740;34.694;33.088;2023-02-21T18:06:30;17.2;16;11.3
76043;PMS7003;64740;34.694;33.088;2023-02-21T18:12:02;17;15.3;11.3
76043;PMS7003;64740;34.694;33.088;2023-02-21T18:16:52;13.4;12.1;8.8
76043;PMS7003;64740;34.694;33.088;2023-02-21T18:21:54;15.4;13.9;10.2
76043;PMS7003;64740;34.694;33.088;2023-02-21T18:26:24;17.6;15.8;11.3
76043;PMS7003;64740;34.694;33.088;2023-02-21T18:31:14;16.7;15.2;11.7
76043;PMS7003;64740;34.694;33.088;2023-02-21T18:36:49;18.3;16.3;11.8
76043;PMS7003;64740;34.694;33.088;2023-02-21T18:41:40;15.2;14.2;10.9
76043;PMS7003;64740;34.694;33.088;2023-02-21T18:47:02;15.8;14.7;11
76043;PMS7003;64740;34.694;33.088;2023-02-21T18:51:26;16.4;14.2;10.3
76043;PMS7003;64740;34.694;33.088;2023-02-21T18:56:15;14.2;12.6;9.5
76043;PMS7003;64740;34.694;33.088;2023-02-21T19:02:00;14.5;12.8;9.8
76043;PMS7003;64740;34.694;33.088;2023-02-21T19:06:50;13.5;12.2;9.3
76043;PMS7003;64740;34.694;33.088;2023-02-21T19:11:18;14.5;12.9;9.8
76043;PMS7003;64740;34.694;33.088;2023-02-21T19:16:17;13.9;12.3;9.3
76043;PMS7003;64740;34.694;33.088;2023-02-21T19:21:16;13.4;12.6;9.4
76043;PMS7003;64740;34.694;33.088;2023-02-21T19:26:16;15.3;13.3;9.7
76043;PMS7003;64740;34.694;33.088;2023-02-21T19:31:56;13.8;13;9.2
76043;PMS7003;64740;34.694;33.088;2023-02-21T19:36:40;13.1;11.9;8.9
76043;PMS7003;64740;34.694;33.088;2023-02-21T19:41:14;15;14.3;9.9
76043;PMS7003;64740;34.694;33.088;2023-02-21T19:46:18;15.6;14.1;9.9
76043;PMS7003;64740;34.694;33.088;2023-02-21T19:51:32;16.7;15;10.9
76043;PMS7003;64740;34.694;33.088;2023-02-21T19:57:01;17;15.3;11.2
76043;PMS7003;64740;34.694;33.088;2023-02-21T20:01:38;16.2;14.8;10.8
76043;PMS7003;64740;34.694;33.088;2023-02-21T20:06:22;14.6;13.1;9.8
76043;PMS7003;64740;34.694;33.088;2023-02-21T20:11:26;15.3;13.5;10.3
76043;PMS7003;64740;34.694;33.088;2023-02-21T20:16:14;15.9;14.3;10.6
76043;PMS7003;64740;34.694;33.088;2023-02-21T20:22:01;15.8;14.5;10.8
76043;PMS7003;64740;34.694;33.088;2023-02-21T20:26:38;16.5;15.1;11.1
76043;PMS7003;64740;34.694;33.088;2023-02-21T20:31:32;16.3;15.4;11.4
76043;PMS7003;64740;34.694;33.088;2023-02-21T20:36:25;16.2;14.6;10.8
76043;PMS7003;64740;34.694;33.088;2023-02-21T20:41:27;14.6;14.1;10.6
76043;PMS7003;64740;34.694;33.088;2023-02-21T20:47:04;15.8;14.3;10.6
76043;PMS7003;64740;34.694;33.088;2023-02-21T20:51:54;12.5;11.2;8.4
76043;PMS7003;64740;34.694;33.088;2023-02-21T20:56:35;13.8;13.1;9.6
76043;PMS7003;64740;34.694;33.088;2023-02-21T21:01:28;13.4;12.7;9.4
76043;PMS7003;64740;34.694;33.088;2023-02-21T21:06:24;15.2;12.6;9.6
76043;PMS7003;64740;34.694;33.088;2023-02-21T21:12:05;14;13;9.8
76043;PMS7003;64740;34.694;33.088;2023-02-21T21:17:04;14.5;13.3;10.1
76043;PMS7003;64740;34.694;33.088;2023-02-21T21:21:16;14.1;12.7;9.5
76043;PMS7003;64740;34.694;33.088;2023-02-21T21:26:16;13.5;12;9.5
76043;PMS7003;64740;34.694;33.088;2023-02-21T21:31:32;13.7;13.1;9.7
76043;PMS7003;64740;34.694;33.088;2023-02-21T21:37:01;13;12.1;9.4
76043;PMS7003;64740;34.694;33.088;2023-02-21T21:41:57;14.9;12.6;9.5
76043;PMS7003;64740;34.694;33.088;2023-02-21T21:46:52;13.6;12.6;9.6
76043;PMS7003;64740;34.694;33.088;2023-02-21T21:51:16;14.6;13.3;9.8
76043;PMS7003;64740;34.694;33.088;2023-02-21T21:56:51;14.6;13.6;10.1
76043;PMS7003;64740;34.694;33.088;2023-02-21T22:01:54;14.4;12.8;9.6
76043;PMS7003;64740;34.694;33.088;2023-02-21T22:06:52;13.2;11.6;8.8
76043;PMS7003;64740;34.694;33.088;2023-02-21T22:11:38;14.7;12.5;9.4
76043;PMS7003;64740;34.694;33.088;2023-02-21T22:16:32;13.6;12;9.1
76043;PMS7003;64740;34.694;33.088;2023-02-21T22:21:25;13.2;12.6;9.6
76043;PMS7003;64740;34.694;33.088;2023-02-21T22:27:02;14.1;12.5;9.3
76043;PMS7003;64740;34.694;33.088;2023-02-21T22:31:38;16;13.8;10.6
76043;PMS7003;64740;34.694;33.088;2023-02-21T22:36:34;15.1;13.7;9.7
76043;PMS7003;64740;34.694;33.088;2023-02-21T22:41:17;14.6;13.1;9.9
76043;PMS7003;64740;34.694;33.088;2023-02-21T22:46:37;14.5;12.6;9.3
76043;PMS7003;64740;34.694;33.088;2023-02-21T22:52:02;12.8;12.2;9.5
76043;PMS7003;64740;34.694;33.088;2023-02-21T22:56:50;13.4;12.3;9.5
76043;PMS7003;64740;34.694;33.088;2023-02-21T23:01:16;13.2;12.1;9.4
76043;PMS7003;64740;34.694;33.088;2023-02-21T23:06:26;12.4;10.9;8.4
76043;PMS7003;64740;34.694;33.088;2023-02-21T23:11:36;12.6;11.4;9
76043;PMS7003;64740;34.694;33.088;2023-02-21T23:16:42;12;10.5;8.2
76043;PMS7003;64740;34.694;33.088;2023-02-21T23:21:52;11.5;10.5;7.9
76043;PMS7003;64740;34.694;33.088;2023-02-21T23:26:26;12.1;11.3;8.4
76043;PMS7003;64740;34.694;33.088;2023-02-21T23:31:34;11.8;10.9;8.4
76043;PMS7003;64740;34.694;33.088;2023-02-21T23:36:16;12.5;10.8;8.2
76043;PMS7003;64740;34.694;33.088;2023-02-21T23:41:50;12;10.8;8.4
76043;PMS7003;64740;34.694;33.088;2023-02-21T23:46:52;11.4;10.5;7.8
76043;PMS7003;64740;34.694;33.088;2023-02-21T23:52:04;11.7;10.9;7.8
76043;PMS7003;64740;34.694;33.088;2023-02-21T23:56:14;11.8;10.7;7.8
